Date,TemperatureHighF,TemperatureAvgF,TemperatureLowF,DewpointHighF,DewpointAvgF,DewpointLowF,HumidityHigh,HumidityAvg,HumidityLow,PressureMaxIn,PressureMinIn,WindSpeedMaxMPH,WindSpeedAvgMPH,GustSpeedMaxMPH,PrecipitationSumIn
2013-3-1,49,40,33,32,29,26,88,66,48,29.74,29.56,5,1,15,0.00
2013-3-2,42,37,32,26,23,21,65,57,47,29.74,29.65,6,2,13,0.00
2013-3-3,39,33,27,20,18,16,67,56,44,29.71,29.62,5,2,15,0.00
2013-3-4,44,36,29,22,19,15,63,51,39,29.85,29.74,7,2,21,0.00
2013-3-5,49,39,31,28,24,22,80,57,41,29.94,29.85,6,2,11,0.00
2013-3-6,41,39,33,37,34,28,88,81,71,29.85,29.68,21,8,39,0.00
2013-3-7,47,39,35,35,30,26,91,72,51,30.00,29.83,8,3,21,0.00
2013-3-8,40,35,30,37,32,28,97,90,64,30.12,29.94,4,1,11,0.00
2013-3-9,61,45,31,28,24,18,73,48,21,30.21,30.12,3,0,14,0.00
2013-3-10,56,42,29,37,33,24,92,73,42,30.30,30.21,11,3,16,0.00
2013-3-11,61,45,34,49,40,32,98,85,47,30.24,30.00,11,4,16,0.00
2013-3-12,56,53,45,54,49,38,95,88,74,29.97,29.68,15,7,20,0.00
2013-3-13,52,44,37,37,29,24,80,59,34,29.85,29.77,11,2,21,0.00
2013-3-14,43,36,31,22,16,12,67,46,30,29.91,29.83,11,4,26,0.00
2013-3-15,50,39,29,27,18,11,53,43,33,29.94,29.65,15,4,24,0.00
2013-3-16,46,38,33,33,29,22,96,74,51,29.83,29.71,5,2,11,0.00
2013-3-17,41,35,29,33,24,18,96,70,43,30.21,29.85,7,1,11,0.00
2013-3-18,40,34,30,37,24,14,96,68,50,30.30,29.88,13,6,24,0.00
2013-3-19,52,42,37,41,35,19,98,81,39,29.83,29.65,7,3,19,0.00
2013-3-20,48,41,32,21,18,14,59,40,26,29.85,29.71,15,4,22,0.00
2013-3-21,41,35,30,28,20,11,88,56,33,29.74,29.59,6,2,16,0.00
2013-3-22,42,35,29,23,18,11,65,50,39,29.85,29.71,6,2,21,0.00
2013-3-23,51,40,30,23,20,19,63,47,29,29.85,29.80,8,2,20,0.00
2013-3-24,47,39,27,26,21,18,76,50,32,29.88,29.62,8,1,14,0.00
2013-3-25,38,36,33,36,32,27,97,86,66,29.62,29.38,9,4,21,0.00
2013-3-26,53,43,35,37,33,28,97,72,38,29.83,29.53,5,1,16,0.00
2013-3-27,53,43,34,34,30,26,84,62,36,29.94,29.83,6,1,19,0.00
2013-3-28,51,43,33,32,29,28,80,59,41,30.06,29.91,5,1,19,0.00
2013-3-29,57,47,37,32,29,25,70,50,33,30.09,30.00,6,1,20,0.00
2013-3-30,59,48,33,33,26,-100,86,49,23,30.12,30.03,7,1,15,0.00
2013-3-31,56,46,35,48,37,28,99,73,37,30.06,29.65,15,5,22,0.00